Time,TemperatureF,DewpointF,PressureIn,WindDirection,WindDirectionDegrees,WindSpeedMPH,WindSpeedGustMPH,Humidity,HourlyPrecipIn,Conditions,Clouds,dailyrainin,SoftwareType,DateUTC
2013-12-24 00:12:00,47.0,-99.9,-100.00,West,280,15.0,20.0,-999,-99.99,,,-99.99,,2013-12-24 05:12:00,
2013-12-24 00:22:00,47.0,-99.9,-100.00,West,280,15.0,20.0,-999,-99.99,,,-99.99,,2013-12-24 05:22:00,
2013-12-24 00:33:00,47.0,-99.9,-100.00,West,280,15.0,20.0,-999,-99.99,,,-99.99,,2013-12-24 05:33:00,
2013-12-24 00:40:00,45.0,-99.9,-100.00,WNW,300,14.0,18.0,-999,-99.99,,,-99.99,,2013-12-24 05:40:00,
2013-12-24 01:12:00,45.0,-99.9,-100.00,WNW,300,14.0,18.0,-999,-99.99,,,-99.99,,2013-12-24 06:12:00,
2013-12-24 01:22:00,45.0,-99.9,-100.00,WNW,300,14.0,18.0,-999,-99.99,,,-99.99,,2013-12-24 06:22:00,
2013-12-24 01:33:00,45.0,-99.9,-100.00,WNW,300,14.0,18.0,-999,-99.99,,,-99.99,,2013-12-24 06:33:00,
2013-12-24 01:40:00,45.0,-99.9,-100.00,WNW,290,7.0,14.0,-999,-99.99,,,-99.99,,2013-12-24 06:40:00,
2013-12-24 02:12:00,45.0,-99.9,-100.00,WNW,290,7.0,14.0,-999,-99.99,,,-99.99,,2013-12-24 07:12:00,
2013-12-24 02:22:00,45.0,-99.9,-100.00,WNW,290,7.0,14.0,-999,-99.99,,,-99.99,,2013-12-24 07:22:00,
2013-12-24 02:32:00,45.0,-99.9,-100.00,WNW,290,7.0,14.0,-999,-99.99,,,-99.99,,2013-12-24 07:32:00,
2013-12-24 02:40:00,44.0,-99.9,-100.00,WNW,290,16.0,20.0,-999,-99.99,,,-99.99,,2013-12-24 07:40:00,
2013-12-24 03:11:00,44.0,-99.9,-100.00,WNW,290,16.0,20.0,-999,-99.99,,,-99.99,,2013-12-24 08:11:00,
2013-12-24 03:22:00,44.0,-99.9,-100.00,WNW,290,16.0,20.0,-999,-99.99,,,-99.99,,2013-12-24 08:22:00,
2013-12-24 03:32:00,44.0,-99.9,-100.00,WNW,290,16.0,20.0,-999,-99.99,,,-99.99,,2013-12-24 08:32:00,
2013-12-24 03:40:00,43.0,-99.9,-100.00,West,280,14.0,20.0,-999,-99.99,,,-99.99,,2013-12-24 08:40:00,
2013-12-24 04:11:00,43.0,-99.9,-100.00,West,280,14.0,20.0,-999,-99.99,,,-99.99,,2013-12-24 09:11:00,
2013-12-24 04:22:00,43.0,-99.9,-100.00,West,280,14.0,20.0,-999,-99.99,,,-99.99,,2013-12-24 09:22:00,
2013-12-24 04:33:00,43.0,-99.9,-100.00,West,280,14.0,20.0,-999,-99.99,,,-99.99,,2013-12-24 09:33:00,
2013-12-24 04:40:00,43.0,-99.9,-100.00,West,280,13.0,17.0,-999,-99.99,,,-99.99,,2013-12-24 09:40:00,
2013-12-24 05:12:00,43.0,-99.9,-100.00,West,280,13.0,17.0,-999,-99.99,,,-99.99,,2013-12-24 10:12:00,
2013-12-24 05:23:00,43.0,-99.9,-100.00,West,280,13.0,17.0,-999,-99.99,,,-99.99,,2013-12-24 10:23:00,
2013-12-24 05:33:00,43.0,-99.9,-100.00,West,280,13.0,17.0,-999,-99.99,,,-99.99,,2013-12-24 10:33:00,
2013-12-24 05:40:00,42.0,-99.9,-100.00,West,280,11.0,16.0,-999,-99.99,,,-99.99,,2013-12-24 10:40:00,
2013-12-24 06:12:00,42.0,-99.9,-100.00,West,280,11.0,16.0,-999,-99.99,,,-99.99,,2013-12-24 11:12:00,
2013-12-24 06:22:00,42.0,-99.9,-100.00,West,280,11.0,16.0,-999,-99.99,,,-99.99,,2013-12-24 11:22:00,
2013-12-24 06:33:00,42.0,-99.9,-100.00,West,280,11.0,16.0,-999,-99.99,,,-99.99,,2013-12-24 11:33:00,
2013-12-24 06:40:00,42.0,-99.9,-100.00,WNW,290,11.0,16.0,-999,-99.99,,,-99.99,,2013-12-24 11:40:00,
2013-12-24 07:11:00,42.0,-99.9,-100.00,WNW,290,11.0,16.0,-999,-99.99,,,-99.99,,2013-12-24 12:11:00,
2013-12-24 07:22:00,42.0,-99.9,-100.00,WNW,290,11.0,16.0,-999,-99.99,,,-99.99,,2013-12-24 12:22:00,
2013-12-24 07:32:00,42.0,-99.9,-100.00,WNW,290,11.0,16.0,-999,-99.99,,,-99.99,,2013-12-24 12:32:00,
2013-12-24 07:40:00,41.0,-99.9,-100.00,WNW,300,14.0,17.0,-999,-99.99,,,-99.99,,2013-12-24 12:40:00,
2013-12-24 08:12:00,41.0,-99.9,-100.00,WNW,300,14.0,17.0,-999,-99.99,,,-99.99,,2013-12-24 13:12:00,
2013-12-24 08:22:00,41.0,-99.9,-100.00,WNW,300,14.0,17.0,-999,-99.99,,,-99.99,,2013-12-24 13:22:00,
2013-12-24 08:33:00,41.0,-99.9,-100.00,WNW,300,14.0,17.0,-999,-99.99,,,-99.99,,2013-12-24 13:33:00,
2013-12-24 08:40:00,40.0,-99.9,-100.00,WNW,300,14.0,21.0,-999,-99.99,,,-99.99,,2013-12-24 13:40:00,
2013-12-24 09:11:00,40.0,-99.9,-100.00,WNW,300,14.0,21.0,-999,-99.99,,,-99.99,,2013-12-24 14:11:00,
2013-12-24 09:22:00,40.0,-99.9,-100.00,WNW,300,14.0,21.0,-999,-99.99,,,-99.99,,2013-12-24 14:22:00,
2013-12-24 09:33:00,40.0,-99.9,-100.00,WNW,300,14.0,21.0,-999,-99.99,,,-99.99,,2013-12-24 14:33:00,
2013-12-24 09:40:00,41.0,-99.9,-100.00,WNW,300,10.0,13.0,-999,-99.99,,,-99.99,,2013-12-24 14:40:00,
2013-12-24 10:11:00,41.0,-99.9,-100.00,WNW,300,10.0,13.0,-999,-99.99,,,-99.99,,2013-12-24 15:11:00,
2013-12-24 10:22:00,41.0,-99.9,-100.00,WNW,300,10.0,13.0,-999,-99.99,,,-99.99,,2013-12-24 15:22:00,
2013-12-24 10:33:00,41.0,-99.9,-100.00,WNW,300,10.0,13.0,-999,-99.99,,,-99.99,,2013-12-24 15:33:00,
2013-12-24 10:40:00,44.0,-99.9,-100.00,WNW,290,9.0,17.0,-999,-99.99,,,-99.99,,2013-12-24 15:40:00,
2013-12-24 11:12:00,44.0,-99.9,-100.00,WNW,290,9.0,17.0,-999,-99.99,,,-99.99,,2013-12-24 16:12:00,
2013-12-24 11:23:00,44.0,-99.9,-100.00,WNW,290,9.0,17.0,-999,-99.99,,,-99.99,,2013-12-24 16:23:00,
2013-12-24 11:33:00,44.0,-99.9,-100.00,WNW,290,9.0,17.0,-999,-99.99,,,-99.99,,2013-12-24 16:33:00,
2013-12-24 11:40:00,46.0,-99.9,-100.00,West,280,11.0,15.0,-999,-99.99,,,-99.99,,2013-12-24 16:40:00,
2013-12-24 12:12:00,46.0,-99.9,-100.00,West,280,11.0,15.0,-999,-99.99,,,-99.99,,2013-12-24 17:12:00,
2013-12-24 12:22:00,46.0,-99.9,-100.00,West,280,11.0,15.0,-999,-99.99,,,-99.99,,2013-12-24 17:22:00,
2013-12-24 12:33:00,46.0,-99.9,-100.00,West,280,11.0,15.0,-999,-99.99,,,-99.99,,2013-12-24 17:33:00,
2013-12-24 12:40:00,49.0,-99.9,-100.00,West,280,15.0,17.0,-999,-99.99,,,-99.99,,2013-12-24 17:40:00,
2013-12-24 13:12:00,49.0,-99.9,-100.00,West,280,15.0,17.0,-999,-99.99,,,-99.99,,2013-12-24 18:12:00,
2013-12-24 13:22:00,49.0,-99.9,-100.00,West,280,15.0,17.0,-999,-99.99,,,-99.99,,2013-12-24 18:22:00,
2013-12-24 13:32:00,49.0,-99.9,-100.00,West,280,15.0,17.0,-999,-99.99,,,-99.99,,2013-12-24 18:32:00,
2013-12-24 13:40:00,49.0,-99.9,-100.00,West,280,15.0,21.0,-999,-99.99,,,-99.99,,2013-12-24 18:40:00,
2013-12-24 14:12:00,49.0,-99.9,-100.00,West,280,15.0,21.0,-999,-99.99,,,-99.99,,2013-12-24 19:12:00,
2013-12-24 14:22:00,49.0,-99.9,-100.00,West,280,15.0,21.0,-999,-99.99,,,-99.99,,2013-12-24 19:22:00,
2013-12-24 14:32:00,49.0,-99.9,-100.00,West,280,15.0,21.0,-999,-99.99,,,-99.99,,2013-12-24 19:32:00,
2013-12-24 14:40:00,50.0,-99.9,-100.00,West,280,15.0,21.0,-999,-99.99,,,-99.99,,2013-12-24 19:40:00,
2013-12-24 15:12:00,50.0,-99.9,-100.00,West,280,15.0,21.0,-999,-99.99,,,-99.99,,2013-12-24 20:12:00,
2013-12-24 15:22:00,50.0,-99.9,-100.00,West,280,15.0,21.0,-999,-99.99,,,-99.99,,2013-12-24 20:22:00,
2013-12-24 15:32:00,50.0,-99.9,-100.00,West,280,15.0,21.0,-999,-99.99,,,-99.99,,2013-12-24 20:32:00,
2013-12-24 15:40:00,50.0,-99.9,-100.00,WNW,290,13.0,21.0,-999,-99.99,,,-99.99,,2013-12-24 20:40:00,
2013-12-24 16:12:00,50.0,-99.9,-100.00,WNW,290,13.0,21.0,-999,-99.99,,,-99.99,,2013-12-24 21:12:00,
2013-12-24 16:22:00,50.0,-99.9,-100.00,WNW,290,13.0,21.0,-999,-99.99,,,-99.99,,2013-12-24 21:22:00,
2013-12-24 16:34:00,50.0,-99.9,-100.00,WNW,290,13.0,21.0,-999,-99.99,,,-99.99,,2013-12-24 21:34:00,
2013-12-24 16:40:00,50.0,-99.9,-100.00,WNW,300,14.0,17.0,-999,-99.99,,,-99.99,,2013-12-24 21:40:00,
2013-12-24 17:13:00,50.0,-99.9,-100.00,WNW,300,14.0,17.0,-999,-99.99,,,-99.99,,2013-12-24 22:13:00,
2013-12-24 17:23:00,50.0,-99.9,-100.00,WNW,300,14.0,17.0,-999,-99.99,,,-99.99,,2013-12-24 22:23:00,
2013-12-24 17:33:00,50.0,-99.9,-100.00,WNW,300,14.0,17.0,-999,-99.99,,,-99.99,,2013-12-24 22:33:00,
2013-12-24 17:40:00,48.0,-99.9,-100.00,WNW,290,16.0,20.0,-999,-99.99,,,-99.99,,2013-12-24 22:40:00,
2013-12-24 18:12:00,48.0,-99.9,-100.00,WNW,290,16.0,20.0,-999,-99.99,,,-99.99,,2013-12-24 23:12:00,
2013-12-24 18:22:00,48.0,-99.9,-100.00,WNW,290,16.0,20.0,-999,-99.99,,,-99.99,,2013-12-24 23:22:00,
2013-12-24 18:33:00,48.0,-99.9,-100.00,WNW,290,16.0,20.0,-999,-99.99,,,-99.99,,2013-12-24 23:33:00,
2013-12-24 18:40:00,47.0,-99.9,-100.00,NW,320,14.0,18.0,-999,-99.99,,,-99.99,,2013-12-24 23:40:00,
2013-12-24 19:12:00,47.0,-99.9,-100.00,NW,320,14.0,18.0,-999,-99.99,,,-99.99,,2013-12-25 00:12:00,
2013-12-24 19:22:00,47.0,-99.9,-100.00,NW,320,14.0,18.0,-999,-99.99,,,-99.99,,2013-12-25 00:22:00,
2013-12-24 19:32:00,47.0,-99.9,-100.00,NW,320,14.0,18.0,-999,-99.99,,,-99.99,,2013-12-25 00:32:00,
2013-12-24 19:40:00,45.0,-99.9,-100.00,NNW,340,10.0,15.0,-999,-99.99,,,-99.99,,2013-12-25 00:40:00,
2013-12-24 20:11:00,45.0,-99.9,-100.00,NNW,340,10.0,15.0,-999,-99.99,,,-99.99,,2013-12-25 01:11:00,
2013-12-24 20:22:00,45.0,-99.9,-100.00,NNW,340,10.0,15.0,-999,-99.99,,,-99.99,,2013-12-25 01:22:00,
2013-12-24 20:32:00,45.0,-99.9,-100.00,NNW,340,10.0,15.0,-999,-99.99,,,-99.99,,2013-12-25 01:32:00,
2013-12-24 20:40:00,42.0,-99.9,-100.00,NNE,20,10.0,14.0,-999,-99.99,,,-99.99,,2013-12-25 01:40:00,
2013-12-24 21:11:00,42.0,-99.9,-100.00,NNE,20,10.0,14.0,-999,-99.99,,,-99.99,,2013-12-25 02:11:00,
2013-12-24 21:22:00,42.0,-99.9,-100.00,NNE,20,10.0,14.0,-999,-99.99,,,-99.99,,2013-12-25 02:22:00,
2013-12-24 21:32:00,42.0,-99.9,-100.00,NNE,20,10.0,14.0,-999,-99.99,,,-99.99,,2013-12-25 02:32:00,
2013-12-24 21:40:00,39.0,-99.9,-100.00,NNE,20,10.0,13.0,-999,-99.99,,,-99.99,,2013-12-25 02:40:00,
2013-12-24 22:12:00,39.0,-99.9,-100.00,NNE,20,10.0,13.0,-999,-99.99,,,-99.99,,2013-12-25 03:12:00,
2013-12-24 22:22:00,39.0,-99.9,-100.00,NNE,20,10.0,13.0,-999,-99.99,,,-99.99,,2013-12-25 03:22:00,
2013-12-24 22:33:00,39.0,-99.9,-100.00,NNE,20,10.0,13.0,-999,-99.99,,,-99.99,,2013-12-25 03:33:00,
2013-12-24 22:40:00,38.0,-99.9,-100.00,NNE,30,13.0,16.0,-999,-99.99,,,-99.99,,2013-12-25 03:40:00,
2013-12-24 23:13:00,38.0,-99.9,-100.00,NNE,30,13.0,16.0,-999,-99.99,,,-99.99,,2013-12-25 04:13:00,
2013-12-24 23:23:00,38.0,-99.9,-100.00,NNE,30,13.0,16.0,-999,-99.99,,,-99.99,,2013-12-25 04:23:00,
2013-12-24 23:33:00,38.0,-99.9,-100.00,NNE,30,13.0,16.0,-999,-99.99,,,-99.99,,2013-12-25 04:33:00,
2013-12-24 23:40:00,36.0,-99.9,-100.00,NNE,20,14.0,17.0,-999,-99.99,,,-99.99,,2013-12-25 04:40:00,